sensor_id;sensor_type;location;lat;lon;timestamp;P1;durP1;ratioP1;P2;durP2;ratioP2
73023;SDS011;61199;47.526;8.538;2023-08-08T00:01:18;2.87;;;1.83;;
73023;SDS011;61199;47.526;8.538;2023-08-08T00:03:44;4.57;;;1.70;;
73023;SDS011;61199;47.526;8.538;2023-08-08T00:06:11;10.10;;;2.23;;
73023;SDS011;61199;47.526;8.538;2023-08-08T00:08:38;4.83;;;1.63;;
73023;SDS011;61199;47.526;8.538;2023-08-08T00:11:04;3.40;;;2.03;;
73023;SDS011;61199;47.526;8.538;2023-08-08T00:13:31;4.57;;;2.10;;
73023;SDS011;61199;47.526;8.538;2023-08-08T00:15:57;6.67;;;2.10;;
73023;SDS011;61199;47.526;8.538;2023-08-08T00:18:24;4.57;;;1.73;;
73023;SDS011;61199;47.526;8.538;2023-08-08T00:20:50;3.90;;;2.07;;
73023;SDS011;61199;47.526;8.538;2023-08-08T00:23:16;4.17;;;1.80;;
73023;SDS011;61199;47.526;8.538;2023-08-08T00:25:43;3.20;;;1.67;;
73023;SDS011;61199;47.526;8.538;2023-08-08T00:28:09;8.80;;;2.00;;
73023;SDS011;61199;47.526;8.538;2023-08-08T00:30:36;2.87;;;1.60;;
73023;SDS011;61199;47.526;8.538;2023-08-08T00:33:02;4.10;;;1.63;;
73023;SDS011;61199;47.526;8.538;2023-08-08T00:35:29;4.60;;;1.70;;
73023;SDS011;61199;47.526;8.538;2023-08-08T00:37:56;3.43;;;1.50;;
73023;SDS011;61199;47.526;8.538;2023-08-08T00:40:22;5.90;;;1.97;;
73023;SDS011;61199;47.526;8.538;2023-08-08T00:42:49;2.90;;;1.60;;
73023;SDS011;61199;47.526;8.538;2023-08-08T00:45:18;5.43;;;2.23;;
73023;SDS011;61199;47.526;8.538;2023-08-08T00:47:44;4.20;;;1.97;;
73023;SDS011;61199;47.526;8.538;2023-08-08T00:50:11;3.27;;;1.90;;
73023;SDS011;61199;47.526;8.538;2023-08-08T00:52:39;5.20;;;1.63;;
73023;SDS011;61199;47.526;8.538;2023-08-08T00:55:07;5.17;;;1.53;;
73023;SDS011;61199;47.526;8.538;2023-08-08T00:57:34;2.40;;;1.67;;
73023;SDS011;61199;47.526;8.538;2023-08-08T01:00:05;2.87;;;1.67;;
73023;SDS011;61199;47.526;8.538;2023-08-08T01:02:33;2.90;;;1.60;;
73023;SDS011;61199;47.526;8.538;2023-08-08T01:04:59;6.23;;;1.80;;
73023;SDS011;61199;47.526;8.538;2023-08-08T01:07:36;2.83;;;1.77;;
73023;SDS011;61199;47.526;8.538;2023-08-08T01:10:11;3.00;;;1.70;;
73023;SDS011;61199;47.526;8.538;2023-08-08T01:12:48;5.60;;;1.90;;
73023;SDS011;61199;47.526;8.538;2023-08-08T01:15:17;2.27;;;1.40;;
73023;SDS011;61199;47.526;8.538;2023-08-08T01:17:45;2.47;;;1.90;;
73023;SDS011;61199;47.526;8.538;2023-08-08T01:20:13;2.60;;;1.57;;
73023;SDS011;61199;47.526;8.538;2023-08-08T01:22:45;3.20;;;1.77;;
73023;SDS011;61199;47.526;8.538;2023-08-08T01:25:20;5.30;;;1.57;;
73023;SDS011;61199;47.526;8.538;2023-08-08T01:27:47;5.73;;;1.57;;
73023;SDS011;61199;47.526;8.538;2023-08-08T01:30:14;3.80;;;1.80;;
73023;SDS011;61199;47.526;8.538;2023-08-08T01:32:41;4.03;;;1.77;;
73023;SDS011;61199;47.526;8.538;2023-08-08T01:35:07;5.40;;;2.10;;
73023;SDS011;61199;47.526;8.538;2023-08-08T01:37:42;4.20;;;1.60;;
73023;SDS011;61199;47.526;8.538;2023-08-08T01:40:12;4.57;;;1.70;;
73023;SDS011;61199;47.526;8.538;2023-08-08T01:42:46;3.07;;;1.70;;
73023;SDS011;61199;47.526;8.538;2023-08-08T01:45:17;4.50;;;1.70;;
73023;SDS011;61199;47.526;8.538;2023-08-08T01:47:49;2.80;;;1.70;;
73023;SDS011;61199;47.526;8.538;2023-08-08T01:50:16;2.30;;;1.40;;
73023;SDS011;61199;47.526;8.538;2023-08-08T01:52:43;3.50;;;1.87;;
73023;SDS011;61199;47.526;8.538;2023-08-08T01:55:10;4.50;;;1.93;;
73023;SDS011;61199;47.526;8.538;2023-08-08T01:57:36;7.23;;;1.90;;
73023;SDS011;61199;47.526;8.538;2023-08-08T02:00:03;9.77;;;1.80;;
73023;SDS011;61199;47.526;8.538;2023-08-08T02:02:32;10.50;;;1.80;;
73023;SDS011;61199;47.526;8.538;2023-08-08T02:04:58;6.70;;;1.83;;
73023;SDS011;61199;47.526;8.538;2023-08-08T02:07:25;2.97;;;1.80;;
73023;SDS011;61199;47.526;8.538;2023-08-08T02:09:51;4.13;;;1.83;;
73023;SDS011;61199;47.526;8.538;2023-08-08T02:12:18;3.07;;;1.90;;
73023;SDS011;61199;47.526;8.538;2023-08-08T02:14:44;4.60;;;1.87;;
73023;SDS011;61199;47.526;8.538;2023-08-08T02:17:10;7.03;;;2.00;;
73023;SDS011;61199;47.526;8.538;2023-08-08T02:19:37;3.43;;;1.90;;
73023;SDS011;61199;47.526;8.538;2023-08-08T02:22:03;4.43;;;1.53;;
73023;SDS011;61199;47.526;8.538;2023-08-08T02:24:30;4.10;;;2.00;;
73023;SDS011;61199;47.526;8.538;2023-08-08T02:26:56;3.30;;;1.80;;
73023;SDS011;61199;47.526;8.538;2023-08-08T02:29:23;4.47;;;2.10;;
73023;SDS011;61199;47.526;8.538;2023-08-08T02:31:49;5.83;;;1.83;;
73023;SDS011;61199;47.526;8.538;2023-08-08T02:34:16;12.80;;;1.80;;
73023;SDS011;61199;47.526;8.538;2023-08-08T02:36:42;3.50;;;2.00;;
73023;SDS011;61199;47.526;8.538;2023-08-08T02:39:09;3.87;;;1.90;;
73023;SDS011;61199;47.526;8.538;2023-08-08T02:41:35;4.23;;;1.60;;
73023;SDS011;61199;47.526;8.538;2023-08-08T02:44:02;5.23;;;2.00;;
73023;SDS011;61199;47.526;8.538;2023-08-08T02:46:28;2.10;;;1.47;;
73023;SDS011;61199;47.526;8.538;2023-08-08T02:48:54;5.57;;;1.70;;
73023;SDS011;61199;47.526;8.538;2023-08-08T02:51:21;7.90;;;1.87;;
73023;SDS011;61199;47.526;8.538;2023-08-08T02:53:48;2.70;;;1.43;;
73023;SDS011;61199;47.526;8.538;2023-08-08T02:56:14;2.23;;;1.30;;
73023;SDS011;61199;47.526;8.538;2023-08-08T02:58:40;3.03;;;2.13;;
73023;SDS011;61199;47.526;8.538;2023-08-08T03:01:07;11.03;;;2.20;;
73023;SDS011;61199;47.526;8.538;2023-08-08T03:03:33;4.40;;;1.90;;
73023;SDS011;61199;47.526;8.538;2023-08-08T03:06:00;3.30;;;1.67;;
73023;SDS011;61199;47.526;8.538;2023-08-08T03:08:28;2.40;;;1.63;;
73023;SDS011;61199;47.526;8.538;2023-08-08T03:10:54;2.83;;;1.70;;
73023;SDS011;61199;47.526;8.538;2023-08-08T03:13:21;4.57;;;1.47;;
73023;SDS011;61199;47.526;8.538;2023-08-08T03:15:48;2.90;;;1.77;;
73023;SDS011;61199;47.526;8.538;2023-08-08T03:18:15;2.87;;;1.80;;
73023;SDS011;61199;47.526;8.538;2023-08-08T03:20:41;13.03;;;1.80;;
73023;SDS011;61199;47.526;8.538;2023-08-08T03:23:08;8.93;;;2.10;;
73023;SDS011;61199;47.526;8.538;2023-08-08T03:25:34;10.40;;;2.07;;
73023;SDS011;61199;47.526;8.538;2023-08-08T03:28:02;5.73;;;2.03;;
73023;SDS011;61199;47.526;8.538;2023-08-08T03:30:28;3.40;;;1.83;;
73023;SDS011;61199;47.526;8.538;2023-08-08T03:32:55;3.47;;;2.00;;
73023;SDS011;61199;47.526;8.538;2023-08-08T03:35:21;4.80;;;1.77;;
73023;SDS011;61199;47.526;8.538;2023-08-08T03:37:48;4.63;;;1.83;;
73023;SDS011;61199;47.526;8.538;2023-08-08T03:40:14;8.00;;;1.90;;
73023;SDS011;61199;47.526;8.538;2023-08-08T03:42:41;7.00;;;1.90;;
73023;SDS011;61199;47.526;8.538;2023-08-08T03:45:08;7.23;;;1.83;;
73023;SDS011;61199;47.526;8.538;2023-08-08T03:47:34;4.63;;;2.20;;
73023;SDS011;61199;47.526;8.538;2023-08-08T03:50:01;4.47;;;1.90;;
73023;SDS011;61199;47.526;8.538;2023-08-08T03:52:28;4.50;;;2.00;;
73023;SDS011;61199;47.526;8.538;2023-08-08T03:54:54;4.90;;;2.13;;
73023;SDS011;61199;47.526;8.538;2023-08-08T03:57:21;3.50;;;2.17;;
73023;SDS011;61199;47.526;8.538;2023-08-08T03:59:47;5.37;;;2.20;;
73023;SDS011;61199;47.526;8.538;2023-08-08T04:02:14;2.83;;;2.13;;
73023;SDS011;61199;47.526;8.538;2023-08-08T04:04:40;3.47;;;1.70;;
73023;SDS011;61199;47.526;8.538;2023-08-08T04:07:07;2.73;;;2.00;;
73023;SDS011;61199;47.526;8.538;2023-08-08T04:09:33;4.70;;;2.10;;
73023;SDS011;61199;47.526;8.538;2023-08-08T04:12:00;10.33;;;2.13;;
73023;SDS011;61199;47.526;8.538;2023-08-08T04:14:27;4.60;;;2.07;;
73023;SDS011;61199;47.526;8.538;2023-08-08T04:16:53;13.30;;;2.40;;
73023;SDS011;61199;47.526;8.538;2023-08-08T04:19:20;5.37;;;2.23;;
73023;SDS011;61199;47.526;8.538;2023-08-08T04:21:46;3.20;;;2.20;;
73023;SDS011;61199;47.526;8.538;2023-08-08T04:24:13;7.60;;;2.50;;
73023;SDS011;61199;47.526;8.538;2023-08-08T04:26:39;5.83;;;2.10;;
73023;SDS011;61199;47.526;8.538;2023-08-08T04:29:05;6.10;;;2.37;;
73023;SDS011;61199;47.526;8.538;2023-08-08T04:31:32;4.27;;;2.23;;
73023;SDS011;61199;47.526;8.538;2023-08-08T04:33:59;6.90;;;2.57;;
73023;SDS011;61199;47.526;8.538;2023-08-08T04:36:27;3.27;;;1.93;;
73023;SDS011;61199;47.526;8.538;2023-08-08T04:38:54;9.10;;;2.00;;
73023;SDS011;61199;47.526;8.538;2023-08-08T04:41:21;7.30;;;2.17;;
73023;SDS011;61199;47.526;8.538;2023-08-08T04:43:48;4.77;;;2.33;;
73023;SDS011;61199;47.526;8.538;2023-08-08T04:46:14;3.57;;;2.23;;
73023;SDS011;61199;47.526;8.538;2023-08-08T04:48:41;2.23;;;1.83;;
73023;SDS011;61199;47.526;8.538;2023-08-08T04:51:08;4.97;;;2.70;;
73023;SDS011;61199;47.526;8.538;2023-08-08T04:53:35;6.80;;;2.00;;
73023;SDS011;61199;47.526;8.538;2023-08-08T04:56:01;2.80;;;1.77;;
73023;SDS011;61199;47.526;8.538;2023-08-08T04:58:28;13.50;;;2.20;;
73023;SDS011;61199;47.526;8.538;2023-08-08T05:00:54;9.00;;;4.33;;
73023;SDS011;61199;47.526;8.538;2023-08-08T05:03:21;12.00;;;5.10;;
73023;SDS011;61199;47.526;8.538;2023-08-08T05:05:48;14.67;;;7.63;;
73023;SDS011;61199;47.526;8.538;2023-08-08T05:08:14;11.67;;;5.27;;
73023;SDS011;61199;47.526;8.538;2023-08-08T05:10:40;7.00;;;3.93;;
73023;SDS011;61199;47.526;8.538;2023-08-08T05:13:07;5.00;;;2.60;;
73023;SDS011;61199;47.526;8.538;2023-08-08T05:15:36;5.97;;;2.10;;
73023;SDS011;61199;47.526;8.538;2023-08-08T05:18:03;6.47;;;2.50;;
73023;SDS011;61199;47.526;8.538;2023-08-08T05:20:30;2.87;;;2.07;;
73023;SDS011;61199;47.526;8.538;2023-08-08T05:22:56;4.70;;;2.33;;
73023;SDS011;61199;47.526;8.538;2023-08-08T05:25:22;3.93;;;2.40;;
73023;SDS011;61199;47.526;8.538;2023-08-08T05:27:49;6.50;;;2.87;;
73023;SDS011;61199;47.526;8.538;2023-08-08T05:30:16;8.00;;;2.37;;
73023;SDS011;61199;47.526;8.538;2023-08-08T05:32:42;12.27;;;2.90;;
73023;SDS011;61199;47.526;8.538;2023-08-08T05:35:09;9.93;;;2.87;;
73023;SDS011;61199;47.526;8.538;2023-08-08T05:37:35;6.60;;;2.60;;
73023;SDS011;61199;47.526;8.538;2023-08-08T05:40:02;7.17;;;2.60;;
73023;SDS011;61199;47.526;8.538;2023-08-08T05:42:31;7.20;;;2.80;;
73023;SDS011;61199;47.526;8.538;2023-08-08T05:44:58;5.20;;;2.57;;
73023;SDS011;61199;47.526;8.538;2023-08-08T05:47:24;5.03;;;3.10;;
73023;SDS011;61199;47.526;8.538;2023-08-08T05:49:51;10.20;;;3.30;;
73023;SDS011;61199;47.526;8.538;2023-08-08T05:52:17;6.73;;;2.90;;
73023;SDS011;61199;47.526;8.538;2023-08-08T05:54:44;9.43;;;3.90;;
73023;SDS011;61199;47.526;8.538;2023-08-08T05:57:10;9.30;;;3.73;;
73023;SDS011;61199;47.526;8.538;2023-08-08T05:59:37;11.20;;;3.67;;
73023;SDS011;61199;47.526;8.538;2023-08-08T06:02:03;9.37;;;3.57;;
73023;SDS011;61199;47.526;8.538;2023-08-08T06:04:31;14.20;;;4.00;;
73023;SDS011;61199;47.526;8.538;2023-08-08T06:06:57;16.00;;;3.80;;
73023;SDS011;61199;47.526;8.538;2023-08-08T06:09:24;5.33;;;3.03;;
73023;SDS011;61199;47.526;8.538;2023-08-08T06:11:51;6.77;;;2.80;;
73023;SDS011;61199;47.526;8.538;2023-08-08T06:14:17;8.23;;;3.27;;
73023;SDS011;61199;47.526;8.538;2023-08-08T06:16:44;9.40;;;3.00;;
73023;SDS011;61199;47.526;8.538;2023-08-08T06:19:12;6.17;;;3.10;;
73023;SDS011;61199;47.526;8.538;2023-08-08T06:21:41;4.20;;;2.80;;
73023;SDS011;61199;47.526;8.538;2023-08-08T06:24:07;6.83;;;3.20;;
73023;SDS011;61199;47.526;8.538;2023-08-08T06:26:34;8.73;;;3.33;;
73023;SDS011;61199;47.526;8.538;2023-08-08T06:29:00;6.40;;;3.67;;
73023;SDS011;61199;47.526;8.538;2023-08-08T06:31:27;5.97;;;3.20;;
73023;SDS011;61199;47.526;8.538;2023-08-08T06:33:53;4.70;;;3.20;;
73023;SDS011;61199;47.526;8.538;2023-08-08T06:36:20;7.43;;;4.50;;
73023;SDS011;61199;47.526;8.538;2023-08-08T06:38:46;8.40;;;3.53;;
73023;SDS011;61199;47.526;8.538;2023-08-08T06:41:13;9.50;;;3.57;;
73023;SDS011;61199;47.526;8.538;2023-08-08T06:43:39;4.80;;;3.10;;
73023;SDS011;61199;47.526;8.538;2023-08-08T06:46:06;6.37;;;3.77;;
73023;SDS011;61199;47.526;8.538;2023-08-08T06:48:32;7.47;;;3.53;;
73023;SDS011;61199;47.526;8.538;2023-08-08T06:50:58;3.83;;;2.83;;
73023;SDS011;61199;47.526;8.538;2023-08-08T06:53:25;8.57;;;3.50;;
73023;SDS011;61199;47.526;8.538;2023-08-08T06:55:52;6.03;;;2.80;;
73023;SDS011;61199;47.526;8.538;2023-08-08T06:58:18;4.23;;;3.00;;
73023;SDS011;61199;47.526;8.538;2023-08-08T07:00:45;6.90;;;2.70;;
73023;SDS011;61199;47.526;8.538;2023-08-08T07:03:11;4.60;;;2.23;;
73023;SDS011;61199;47.526;8.538;2023-08-08T07:05:38;7.40;;;1.87;;
73023;SDS011;61199;47.526;8.538;2023-08-08T07:08:05;5.50;;;2.50;;
73023;SDS011;61199;47.526;8.538;2023-08-08T07:10:32;4.63;;;2.40;;
73023;SDS011;61199;47.526;8.538;2023-08-08T07:12:59;10.10;;;2.37;;
73023;SDS011;61199;47.526;8.538;2023-08-08T07:15:25;4.20;;;2.60;;
73023;SDS011;61199;47.526;8.538;2023-08-08T07:17:52;5.20;;;2.43;;
73023;SDS011;61199;47.526;8.538;2023-08-08T07:20:18;5.40;;;2.30;;
73023;SDS011;61199;47.526;8.538;2023-08-08T07:22:45;4.07;;;2.23;;
73023;SDS011;61199;47.526;8.538;2023-08-08T07:25:12;4.33;;;2.40;;
73023;SDS011;61199;47.526;8.538;2023-08-08T07:27:38;5.30;;;2.50;;
73023;SDS011;61199;47.526;8.538;2023-08-08T07:30:05;7.63;;;2.40;;
73023;SDS011;61199;47.526;8.538;2023-08-08T07:32:33;5.30;;;2.17;;
73023;SDS011;61199;47.526;8.538;2023-08-08T07:35:00;7.40;;;2.30;;
73023;SDS011;61199;47.526;8.538;2023-08-08T07:37:28;3.20;;;2.00;;
73023;SDS011;61199;47.526;8.538;2023-08-08T07:39:55;3.13;;;2.10;;
73023;SDS011;61199;47.526;8.538;2023-08-08T07:42:21;4.77;;;2.10;;
73023;SDS011;61199;47.526;8.538;2023-08-08T07:44:48;3.23;;;2.17;;
73023;SDS011;61199;47.526;8.538;2023-08-08T07:47:14;10.47;;;2.47;;
73023;SDS011;61199;47.526;8.538;2023-08-08T07:49:41;6.23;;;2.27;;
73023;SDS011;61199;47.526;8.538;2023-08-08T07:52:07;3.17;;;1.87;;
73023;SDS011;61199;47.526;8.538;2023-08-08T07:54:34;4.93;;;2.13;;
73023;SDS011;61199;47.526;8.538;2023-08-08T07:57:01;3.20;;;2.17;;
73023;SDS011;61199;47.526;8.538;2023-08-08T07:59:27;5.83;;;2.80;;
73023;SDS011;61199;47.526;8.538;2023-08-08T08:01:54;8.07;;;2.97;;
73023;SDS011;61199;47.526;8.538;2023-08-08T08:04:20;8.43;;;2.87;;
73023;SDS011;61199;47.526;8.538;2023-08-08T08:06:46;10.97;;;3.20;;
73023;SDS011;61199;47.526;8.538;2023-08-08T08:09:13;5.00;;;3.07;;
73023;SDS011;61199;47.526;8.538;2023-08-08T08:11:40;6.80;;;2.70;;
73023;SDS011;61199;47.526;8.538;2023-08-08T08:14:06;6.00;;;2.60;;
73023;SDS011;61199;47.526;8.538;2023-08-08T08:16:32;11.77;;;3.10;;
73023;SDS011;61199;47.526;8.538;2023-08-08T08:18:59;6.50;;;2.53;;
73023;SDS011;61199;47.526;8.538;2023-08-08T08:21:26;13.77;;;3.37;;
73023;SDS011;61199;47.526;8.538;2023-08-08T08:23:52;5.07;;;2.43;;
73023;SDS011;61199;47.526;8.538;2023-08-08T08:26:18;4.20;;;2.93;;
73023;SDS011;61199;47.526;8.538;2023-08-08T08:28:46;8.77;;;3.20;;
73023;SDS011;61199;47.526;8.538;2023-08-08T08:31:12;7.43;;;2.13;;
73023;SDS011;61199;47.526;8.538;2023-08-08T08:33:39;4.80;;;2.60;;
73023;SDS011;61199;47.526;8.538;2023-08-08T08:36:06;4.40;;;2.63;;
73023;SDS011;61199;47.526;8.538;2023-08-08T08:38:33;23.63;;;3.97;;
73023;SDS011;61199;47.526;8.538;2023-08-08T08:40:59;20.10;;;3.50;;
73023;SDS011;61199;47.526;8.538;2023-08-08T08:43:28;3.83;;;2.07;;
73023;SDS011;61199;47.526;8.538;2023-08-08T08:45:56;7.50;;;2.30;;
73023;SDS011;61199;47.526;8.538;2023-08-08T08:48:26;16.30;;;2.77;;
73023;SDS011;61199;47.526;8.538;2023-08-08T08:50:53;10.60;;;2.70;;
73023;SDS011;61199;47.526;8.538;2023-08-08T08:53:20;6.23;;;2.33;;
73023;SDS011;61199;47.526;8.538;2023-08-08T08:55:48;6.10;;;2.10;;
73023;SDS011;61199;47.526;8.538;2023-08-08T08:58:15;3.10;;;1.63;;
73023;SDS011;61199;47.526;8.538;2023-08-08T09:00:43;3.13;;;1.90;;
73023;SDS011;61199;47.526;8.538;2023-08-08T09:03:12;5.73;;;2.77;;
73023;SDS011;61199;47.526;8.538;2023-08-08T09:05:39;3.20;;;1.80;;
73023;SDS011;61199;47.526;8.538;2023-08-08T09:08:07;2.67;;;1.50;;
73023;SDS011;61199;47.526;8.538;2023-08-08T09:10:35;6.13;;;2.00;;
73023;SDS011;61199;47.526;8.538;2023-08-08T09:13:01;3.47;;;1.97;;
73023;SDS011;61199;47.526;8.538;2023-08-08T09:15:31;7.93;;;1.70;;
73023;SDS011;61199;47.526;8.538;2023-08-08T09:17:59;2.50;;;1.80;;
73023;SDS011;61199;47.526;8.538;2023-08-08T09:20:26;3.30;;;1.47;;
73023;SDS011;61199;47.526;8.538;2023-08-08T09:22:56;12.50;;;2.43;;
73023;SDS011;61199;47.526;8.538;2023-08-08T09:25:23;17.53;;;2.70;;
73023;SDS011;61199;47.526;8.538;2023-08-08T09:27:51;24.17;;;3.67;;
73023;SDS011;61199;47.526;8.538;2023-08-08T09:30:19;9.87;;;2.40;;
73023;SDS011;61199;47.526;8.538;2023-08-08T09:32:46;3.60;;;1.93;;
73023;SDS011;61199;47.526;8.538;2023-08-08T09:35:13;32.83;;;5.73;;
73023;SDS011;61199;47.526;8.538;2023-08-08T09:37:41;9.63;;;2.20;;
73023;SDS011;61199;47.526;8.538;2023-08-08T09:40:08;4.03;;;1.70;;
73023;SDS011;61199;47.526;8.538;2023-08-08T09:42:37;4.27;;;2.03;;
73023;SDS011;61199;47.526;8.538;2023-08-08T09:45:04;3.67;;;1.80;;
73023;SDS011;61199;47.526;8.538;2023-08-08T09:47:30;2.30;;;1.50;;
73023;SDS011;61199;47.526;8.538;2023-08-08T09:50:01;4.33;;;1.60;;
73023;SDS011;61199;47.526;8.538;2023-08-08T09:52:31;8.73;;;1.90;;
73023;SDS011;61199;47.526;8.538;2023-08-08T09:55:00;4.20;;;1.60;;
73023;SDS011;61199;47.526;8.538;2023-08-08T09:57:26;4.70;;;2.03;;
73023;SDS011;61199;47.526;8.538;2023-08-08T09:59:53;3.40;;;1.80;;
73023;SDS011;61199;47.526;8.538;2023-08-08T10:02:21;2.97;;;1.73;;
73023;SDS011;61199;47.526;8.538;2023-08-08T10:04:47;3.97;;;1.90;;
73023;SDS011;61199;47.526;8.538;2023-08-08T10:07:14;3.80;;;1.53;;
73023;SDS011;61199;47.526;8.538;2023-08-08T10:09:41;3.43;;;1.60;;
73023;SDS011;61199;47.526;8.538;2023-08-08T10:12:08;3.53;;;1.53;;
73023;SDS011;61199;47.526;8.538;2023-08-08T10:14:37;3.33;;;1.73;;
73023;SDS011;61199;47.526;8.538;2023-08-08T10:17:05;3.37;;;1.80;;
73023;SDS011;61199;47.526;8.538;2023-08-08T10:19:32;2.73;;;1.70;;
73023;SDS011;61199;47.526;8.538;2023-08-08T10:22:00;7.57;;;1.60;;
73023;SDS011;61199;47.526;8.538;2023-08-08T10:24:33;4.40;;;1.47;;
73023;SDS011;61199;47.526;8.538;2023-08-08T10:27:02;4.07;;;1.60;;
73023;SDS011;61199;47.526;8.538;2023-08-08T10:29:32;5.30;;;1.63;;
73023;SDS011;61199;47.526;8.538;2023-08-08T10:32:00;4.90;;;1.40;;
73023;SDS011;61199;47.526;8.538;2023-08-08T10:34:40;3.27;;;1.50;;
73023;SDS011;61199;47.526;8.538;2023-08-08T10:37:14;10.70;;;1.87;;
73023;SDS011;61199;47.526;8.538;2023-08-08T10:39:54;3.77;;;1.53;;
73023;SDS011;61199;47.526;8.538;2023-08-08T10:42:25;2.67;;;1.50;;
73023;SDS011;61199;47.526;8.538;2023-08-08T10:44:54;3.30;;;1.40;;
73023;SDS011;61199;47.526;8.538;2023-08-08T10:47:25;3.17;;;1.40;;
73023;SDS011;61199;47.526;8.538;2023-08-08T10:50:10;4.63;;;1.87;;
73023;SDS011;61199;47.526;8.538;2023-08-08T10:52:49;7.40;;;1.33;;
73023;SDS011;61199;47.526;8.538;2023-08-08T10:58:05;2.57;;;1.50;;
73023;SDS011;61199;47.526;8.538;2023-08-08T11:00:34;2.77;;;1.47;;
73023;SDS011;61199;47.526;8.538;2023-08-08T11:03:06;1.93;;;1.37;;
73023;SDS011;61199;47.526;8.538;2023-08-08T11:05:35;6.27;;;2.00;;
73023;SDS011;61199;47.526;8.538;2023-08-08T11:08:03;3.30;;;1.40;;
73023;SDS011;61199;47.526;8.538;2023-08-08T11:10:40;4.97;;;1.50;;
73023;SDS011;61199;47.526;8.538;2023-08-08T11:13:08;3.40;;;1.90;;
73023;SDS011;61199;47.526;8.538;2023-08-08T11:15:35;2.90;;;1.43;;
73023;SDS011;61199;47.526;8.538;2023-08-08T11:18:03;3.80;;;1.90;;
73023;SDS011;61199;47.526;8.538;2023-08-08T11:20:30;4.40;;;1.70;;
73023;SDS011;61199;47.526;8.538;2023-08-08T11:22:59;5.53;;;2.37;;
73023;SDS011;61199;47.526;8.538;2023-08-08T11:25:27;6.40;;;2.60;;
73023;SDS011;61199;47.526;8.538;2023-08-08T11:27:56;3.23;;;1.80;;
73023;SDS011;61199;47.526;8.538;2023-08-08T11:30:24;3.83;;;2.13;;
73023;SDS011;61199;47.526;8.538;2023-08-08T11:32:54;43.43;;;3.20;;
73023;SDS011;61199;47.526;8.538;2023-08-08T11:35:24;4.17;;;2.00;;
73023;SDS011;61199;47.526;8.538;2023-08-08T11:37:51;8.50;;;1.70;;
73023;SDS011;61199;47.526;8.538;2023-08-08T11:40:19;2.80;;;1.60;;
73023;SDS011;61199;47.526;8.538;2023-08-08T11:42:48;2.80;;;1.50;;
73023;SDS011;61199;47.526;8.538;2023-08-08T11:45:16;5.73;;;1.90;;
73023;SDS011;61199;47.526;8.538;2023-08-08T11:47:44;3.93;;;2.10;;
73023;SDS011;61199;47.526;8.538;2023-08-08T11:50:14;2.90;;;1.70;;
73023;SDS011;61199;47.526;8.538;2023-08-08T11:52:41;3.03;;;1.50;;
73023;SDS011;61199;47.526;8.538;2023-08-08T11:55:09;13.43;;;1.80;;
73023;SDS011;61199;47.526;8.538;2023-08-08T11:57:36;6.10;;;2.47;;
73023;SDS011;61199;47.526;8.538;2023-08-08T12:00:10;4.53;;;2.10;;
73023;SDS011;61199;47.526;8.538;2023-08-08T12:02:41;4.37;;;2.10;;
73023;SDS011;61199;47.526;8.538;2023-08-08T12:05:12;3.50;;;1.90;;
73023;SDS011;61199;47.526;8.538;2023-08-08T12:07:43;4.70;;;2.23;;
73023;SDS011;61199;47.526;8.538;2023-08-08T12:10:15;3.60;;;1.80;;
73023;SDS011;61199;47.526;8.538;2023-08-08T12:12:44;12.37;;;2.47;;
73023;SDS011;61199;47.526;8.538;2023-08-08T12:15:12;2.60;;;1.50;;
73023;SDS011;61199;47.526;8.538;2023-08-08T12:17:46;5.70;;;1.80;;
73023;SDS011;61199;47.526;8.538;2023-08-08T12:20:14;2.93;;;1.50;;
73023;SDS011;61199;47.526;8.538;2023-08-08T12:22:41;4.43;;;1.50;;
73023;SDS011;61199;47.526;8.538;2023-08-08T12:25:07;2.47;;;1.50;;
73023;SDS011;61199;47.526;8.538;2023-08-08T12:27:34;2.90;;;1.83;;
73023;SDS011;61199;47.526;8.538;2023-08-08T12:30:00;5.20;;;1.90;;
73023;SDS011;61199;47.526;8.538;2023-08-08T12:32:27;4.80;;;2.57;;
73023;SDS011;61199;47.526;8.538;2023-08-08T12:34:55;5.90;;;2.10;;
73023;SDS011;61199;47.526;8.538;2023-08-08T12:37:22;5.53;;;1.90;;
73023;SDS011;61199;47.526;8.538;2023-08-08T12:39:49;6.70;;;2.50;;
73023;SDS011;61199;47.526;8.538;2023-08-08T12:42:17;4.20;;;1.53;;
73023;SDS011;61199;47.526;8.538;2023-08-08T12:44:44;4.37;;;1.90;;
73023;SDS011;61199;47.526;8.538;2023-08-08T12:47:11;2.60;;;1.57;;
73023;SDS011;61199;47.526;8.538;2023-08-08T12:49:40;2.30;;;1.67;;
73023;SDS011;61199;47.526;8.538;2023-08-08T12:52:06;4.50;;;2.03;;
73023;SDS011;61199;47.526;8.538;2023-08-08T12:54:33;7.43;;;2.07;;
73023;SDS011;61199;47.526;8.538;2023-08-08T12:56:59;3.40;;;2.10;;
73023;SDS011;61199;47.526;8.538;2023-08-08T12:59:26;9.30;;;2.73;;
73023;SDS011;61199;47.526;8.538;2023-08-08T13:01:53;9.53;;;2.23;;
73023;SDS011;61199;47.526;8.538;2023-08-08T13:04:19;9.90;;;2.07;;
73023;SDS011;61199;47.526;8.538;2023-08-08T13:06:47;4.80;;;1.90;;
73023;SDS011;61199;47.526;8.538;2023-08-08T13:09:14;6.40;;;2.20;;
73023;SDS011;61199;47.526;8.538;2023-08-08T13:11:43;4.83;;;2.47;;
73023;SDS011;61199;47.526;8.538;2023-08-08T13:14:09;3.40;;;1.73;;
73023;SDS011;61199;47.526;8.538;2023-08-08T13:16:35;2.03;;;1.33;;
73023;SDS011;61199;47.526;8.538;2023-08-08T13:19:02;4.63;;;1.63;;
73023;SDS011;61199;47.526;8.538;2023-08-08T13:21:29;6.53;;;1.67;;
73023;SDS011;61199;47.526;8.538;2023-08-08T13:23:56;2.97;;;2.10;;
73023;SDS011;61199;47.526;8.538;2023-08-08T13:26:23;4.13;;;1.47;;
73023;SDS011;61199;47.526;8.538;2023-08-08T13:28:49;4.10;;;1.73;;
73023;SDS011;61199;47.526;8.538;2023-08-08T13:31:16;4.10;;;1.70;;
73023;SDS011;61199;47.526;8.538;2023-08-08T13:33:43;10.30;;;1.73;;
73023;SDS011;61199;47.526;8.538;2023-08-08T13:36:09;4.87;;;1.80;;
73023;SDS011;61199;47.526;8.538;2023-08-08T13:38:36;4.57;;;1.60;;
73023;SDS011;61199;47.526;8.538;2023-08-08T13:41:02;3.30;;;1.73;;
73023;SDS011;61199;47.526;8.538;2023-08-08T13:43:29;11.20;;;1.90;;
73023;SDS011;61199;47.526;8.538;2023-08-08T13:45:56;8.00;;;1.93;;
73023;SDS011;61199;47.526;8.538;2023-08-08T13:48:23;9.70;;;1.90;;
73023;SDS011;61199;47.526;8.538;2023-08-08T13:50:49;2.40;;;1.50;;
73023;SDS011;61199;47.526;8.538;2023-08-08T13:53:17;5.83;;;2.07;;
73023;SDS011;61199;47.526;8.538;2023-08-08T13:55:43;6.60;;;1.97;;
73023;SDS011;61199;47.526;8.538;2023-08-08T13:58:10;5.50;;;2.40;;
73023;SDS011;61199;47.526;8.538;2023-08-08T14:00:37;3.97;;;1.80;;
73023;SDS011;61199;47.526;8.538;2023-08-08T14:03:03;3.27;;;1.40;;
73023;SDS011;61199;47.526;8.538;2023-08-08T14:05:30;3.70;;;2.00;;
73023;SDS011;61199;47.526;8.538;2023-08-08T14:07:57;4.80;;;1.83;;
73023;SDS011;61199;47.526;8.538;2023-08-08T14:10:24;4.00;;;1.80;;
73023;SDS011;61199;47.526;8.538;2023-08-08T14:12:50;10.07;;;2.30;;
73023;SDS011;61199;47.526;8.538;2023-08-08T14:15:16;6.93;;;2.30;;
73023;SDS011;61199;47.526;8.538;2023-08-08T14:17:43;4.47;;;1.60;;
73023;SDS011;61199;47.526;8.538;2023-08-08T14:20:10;2.30;;;1.50;;
73023;SDS011;61199;47.526;8.538;2023-08-08T14:22:37;3.83;;;1.70;;
73023;SDS011;61199;47.526;8.538;2023-08-08T14:25:04;2.80;;;1.53;;
73023;SDS011;61199;47.526;8.538;2023-08-08T14:27:32;5.00;;;1.87;;
73023;SDS011;61199;47.526;8.538;2023-08-08T14:29:59;4.80;;;2.10;;
73023;SDS011;61199;47.526;8.538;2023-08-08T14:32:26;3.37;;;1.67;;
73023;SDS011;61199;47.526;8.538;2023-08-08T14:34:52;4.10;;;1.63;;
73023;SDS011;61199;47.526;8.538;2023-08-08T14:37:19;3.00;;;1.80;;
73023;SDS011;61199;47.526;8.538;2023-08-08T14:39:46;4.43;;;1.50;;
73023;SDS011;61199;47.526;8.538;2023-08-08T14:42:13;5.10;;;2.10;;
73023;SDS011;61199;47.526;8.538;2023-08-08T14:44:39;3.10;;;1.70;;
73023;SDS011;61199;47.526;8.538;2023-08-08T14:47:06;5.47;;;1.57;;
73023;SDS011;61199;47.526;8.538;2023-08-08T14:49:32;6.67;;;1.80;;